Time;durP1;ratioP1;P1;durP2;ratioP2;P2;SDS_P1;SDS_P2;PMS_P1;PMS_P2;Temp;Humidity;BMP_temperature;BMP_pressure;BME280_temperature;BME280_humidity;BME280_pressure;Samples;Min_cycle;Max_cycle;Signal;HPM_P1;HPM_P2
2023/10/19 00:00:56;;;;;;;;;;;;;;;;;;5123213;28;19919;-52
2023/10/19 00:03:23;;;;;;;;;;;;;;;;;;5116580;28;19983;-55
2023/10/19 00:05:48;;;;;;;;;;;;;;;;;;5128334;28;19918;-53
2023/10/19 00:10:47;;;;;;;;;;;;;;;;;;5120171;28;19911;-52
2023/10/19 00:13:13;;;;;;;;;;;;;;;;;;5103047;28;19940;-55
2023/10/19 00:15:49;;;;;;;;;;;;;;;;;;5131248;28;19938;-56
2023/10/19 00:23:13;;;;;;;;;;;;;;;;;;5115779;28;19916;-55
2023/10/19 00:25:41;;;;;;;;;;;;;;;;;;5121713;28;19920;-53
2023/10/19 00:28:07;;;;;;;;;;;;;;;;;;5116012;28;19940;-54
2023/10/19 00:30:35;;;;;;;;;;;;;;;;;;5116288;28;19912;-55
2023/10/19 00:33:03;;;;;;;;;;;;;;;;;;5125761;28;19923;-48
2023/10/19 00:35:34;;;;;;;;;;;;;;;;;;5124539;28;19943;-49
2023/10/19 00:38:21;;;;;;;;;;;;;;;;;;5114959;28;19916;-52
2023/10/19 00:40:47;;;;;;;;;;;;;;;;;;5103707;28;19916;-51
2023/10/19 00:43:17;;;;;;;;;;;;;;;;;;5120027;28;19920;-52
2023/10/19 00:45:46;;;;;;;;;;;;;;;;;;5114864;28;19933;-50
2023/10/19 00:48:12;;;;;;;;;;;;;;;;;;5115213;28;19995;-55
2023/10/19 00:50:38;;;;;;;;;;;;;;;;;;5114633;28;19912;-53
2023/10/19 00:53:08;;;;;;;;;;;;;;;;;;5119506;28;19912;-54
2023/10/19 00:55:33;;;;;;;;;;;;;;;;;;5114624;28;19987;-54
2023/10/19 00:58:03;;;;;;;;;;;;;;;;;;5114286;28;20641;-55
2023/10/19 01:00:34;;;;;;;;;;;;;;;;;;5115594;28;19927;-51
2023/10/19 01:03:00;;;;;;;;;;;;;;;;;;5114460;28;19924;-56
2023/10/19 01:05:31;;;;;;;;;;;;;;;;;;5122587;28;19933;-55
2023/10/19 01:07:57;;;;;;;;;;;;;;;;;;5117358;28;19954;-55
2023/10/19 01:10:28;;;;;;;;;;;;;;;;;;5114393;28;19912;-55
2023/10/19 01:12:53;;;;;;;;;;;;;;;;;;5126806;28;19916;-54
2023/10/19 01:17:56;;;;;;;;;;;;;;;;;;5114066;28;19981;-52
2023/10/19 01:20:22;;;;;;;;;;;;;;;;;;5115143;28;19976;-54
2023/10/19 01:22:49;;;;;;;;;;;;;;;;;;5124513;28;19923;-55
2023/10/19 01:25:17;;;;;;;;;;;;;;;;;;5114309;28;19912;-55
2023/10/19 01:27:43;;;;;;;;;;;;;;;;;;5114834;28;19919;-56
2023/10/19 01:30:09;;;;;;;;;;;;;;;;;;5114288;28;19912;-56
2023/10/19 01:32:35;;;;;;;;;;;;;;;;;;5120374;28;19913;-55
2023/10/19 01:35:00;;;;;;;;;;;;;;;;;;5121596;28;19920;-52
2023/10/19 01:37:26;;;;;;;;;;;;;;;;;;5114422;28;19975;-54
2023/10/19 01:39:52;;;;;;;;;;;;;;;;;;5114220;28;19912;-54
2023/10/19 01:42:17;;;;;;;;;;;;;;;;;;5123004;28;19916;-53
2023/10/19 01:44:43;;;;;;;;;;;;;;;;;;5121743;28;19912;-56
2023/10/19 01:47:08;;;;;;;;;;;;;;;;;;5122316;28;19919;-56
2023/10/19 01:49:33;;;;;;;;;;;;;;;;;;5114950;28;19951;-54
2023/10/19 01:52:00;;;;;;;;;;;;;;;;;;5115190;28;19915;-52
2023/10/19 01:54:25;;;;;;;;;;;;;;;;;;5118950;28;19958;-52
2023/10/19 01:56:51;;;;;;;;;;;;;;;;;;5117593;28;19912;-49
2023/10/19 01:59:16;;;;;;;;;;;;;;;;;;5117764;28;19912;-52
2023/10/19 02:01:45;;;;;;;;;;;;;;;;;;5118545;28;19979;-51
2023/10/19 02:04:13;;;;;;;;;;;;;;;;;;5118525;28;19915;-56
2023/10/19 02:06:40;;;;;;;;;;;;;;;;;;5120808;28;19919;-54
2023/10/19 02:09:09;;;;;;;;;;;;;;;;;;5117713;28;19896;-50
2023/10/19 02:11:40;;;;;;;;;;;;;;;;;;5115220;28;19912;-50
2023/10/19 02:14:14;;;;;;;;;;;;;;;;;;5122937;28;19912;-55
2023/10/19 02:16:41;;;;;;;;;;;;;;;;;;5117633;28;19966;-56
2023/10/19 02:19:06;;;;;;;;;;;;;;;;;;5117503;28;19912;-56
2023/10/19 02:21:32;;;;;;;;;;;;;;;;;;5118309;28;19936;-53
2023/10/19 02:23:58;;;;;;;;;;;;;;;;;;5121431;28;19977;-55
2023/10/19 02:26:27;;;;;;;;;;;;;;;;;;5122434;28;19912;-56
2023/10/19 02:28:53;;;;;;;;;;;;;;;;;;5121110;28;19979;-56
2023/10/19 02:31:19;;;;;;;;;;;;;;;;;;5117200;28;19912;-56
2023/10/19 02:33:52;;;;;;;;;;;;;;;;;;5118140;28;19962;-52
2023/10/19 02:36:19;;;;;;;;;;;;;;;;;;5117943;28;19920;-56
2023/10/19 02:38:48;;;;;;;;;;;;;;;;;;5117957;28;19923;-55
2023/10/19 02:41:15;;;;;;;;;;;;;;;;;;5117715;28;19970;-53
2023/10/19 02:43:41;;;;;;;;;;;;;;;;;;5108264;28;19930;-55
2023/10/19 02:46:06;;;;;;;;;;;;;;;;;;5111694;28;19939;-53
2023/10/19 02:48:32;;;;;;;;;;;;;;;;;;5119498;28;19908;-51
2023/10/19 02:51:05;;;;;;;;;;;;;;;;;;5116706;28;19912;-53
2023/10/19 02:53:31;;;;;;;;;;;;;;;;;;5123669;28;19912;-51
2023/10/19 02:55:59;;;;;;;;;;;;;;;;;;5116435;28;19919;-54
2023/10/19 02:58:28;;;;;;;;;;;;;;;;;;5126629;28;19923;-51
2023/10/19 03:00:53;;;;;;;;;;;;;;;;;;5116385;28;19986;-55
2023/10/19 03:03:18;;;;;;;;;;;;;;;;;;5120277;28;19915;-57
2023/10/19 03:05:46;;;;;;;;;;;;;;;;;;5116666;28;19912;-54
2023/10/19 03:08:15;;;;;;;;;;;;;;;;;;5117063;28;19939;-53
2023/10/19 03:10:44;;;;;;;;;;;;;;;;;;5117279;28;19937;-55
2023/10/19 03:13:09;;;;;;;;;;;;;;;;;;5116180;28;20054;-55
2023/10/19 03:15:35;;;;;;;;;;;;;;;;;;5117221;28;20691;-55
2023/10/19 03:18:01;;;;;;;;;;;;;;;;;;5122947;28;19916;-51
2023/10/19 03:20:27;;;;;;;;;;;;;;;;;;5117038;28;19980;-55
2023/10/19 03:22:53;;;;;;;;;;;;;;;;;;5108504;28;19922;-56
2023/10/19 03:28:10;;;;;;;;;;;;;;;;;;5116793;28;19951;-52
2023/10/19 03:30:39;;;;;;;;;;;;;;;;;;5117357;28;19912;-54
2023/10/19 03:33:05;;;;;;;;;;;;;;;;;;5121654;28;19918;-51
2023/10/19 03:35:31;;;;;;;;;;;;;;;;;;5118698;28;20393;-53
2023/10/19 03:38:00;;;;;;;;;;;;;;;;;;5125227;28;19948;-53
2023/10/19 03:40:31;;;;;;;;;;;;;;;;;;5115517;28;19989;-53
2023/10/19 03:42:58;;;;;;;;;;;;;;;;;;5119641;28;19916;-54
2023/10/19 03:45:24;;;;;;;;;;;;;;;;;;5115979;28;19919;-52
2023/10/19 03:47:50;;;;;;;;;;;;;;;;;;5116600;28;19950;-53
2023/10/19 03:50:20;;;;;;;;;;;;;;;;;;5116364;28;19935;-52
2023/10/19 03:52:45;;;;;;;;;;;;;;;;;;5116547;28;19938;-50
2023/10/19 03:55:12;;;;;;;;;;;;;;;;;;5116166;28;19912;-54
2023/10/19 03:57:41;;;;;;;;;;;;;;;;;;5115637;28;19919;-53
2023/10/19 04:00:11;;;;;;;;;;;;;;;;;;5115802;28;19912;-56
2023/10/19 04:02:38;;;;;;;;;;;;;;;;;;5116385;28;19927;-56
2023/10/19 04:05:04;;;;;;;;;;;;;;;;;;5110382;28;19912;-54
2023/10/19 04:07:31;;;;;;;;;;;;;;;;;;5110065;28;19934;-57
2023/10/19 04:12:37;;;;;;;;;;;;;;;;;;5115294;28;19934;-55
2023/10/19 04:15:18;;;;;;;;;;;;;;;;;;5110209;28;19920;-53
2023/10/19 04:17:45;;;;;;;;;;;;;;;;;;5116997;28;19912;-55
2023/10/19 04:22:42;;;;;;;;;;;;;;;;;;5115677;28;19916;-55
2023/10/19 04:25:08;;;;;;;;;;;;;;;;;;5115485;28;20006;-56
2023/10/19 04:27:35;;;;;;;;;;;;;;;;;;5126841;28;19934;-56
2023/10/19 04:30:02;;;;;;;;;;;;;;;;;;5123762;28;19938;-54
2023/10/19 04:32:27;;;;;;;;;;;;;;;;;;5115456;28;19912;-53
2023/10/19 04:34:52;;;;;;;;;;;;;;;;;;5118774;28;19913;-53
2023/10/19 04:37:18;;;;;;;;;;;;;;;;;;5119873;28;19923;-52
2023/10/19 04:39:44;;;;;;;;;;;;;;;;;;5115708;28;19919;-52
2023/10/19 04:42:09;;;;;;;;;;;;;;;;;;5115198;28;19920;-55
2023/10/19 04:44:35;;;;;;;;;;;;;;;;;;5127714;28;19919;-53
2023/10/19 04:47:02;;;;;;;;;;;;;;;;;;5109014;28;20306;-55
2023/10/19 04:49:28;;;;;;;;;;;;;;;;;;5120031;28;19916;-53
2023/10/19 04:51:54;;;;;;;;;;;;;;;;;;5109661;28;19934;-54
2023/10/19 04:54:19;;;;;;;;;;;;;;;;;;5115795;28;19916;-55
2023/10/19 04:56:45;;;;;;;;;;;;;;;;;;5109849;28;19932;-54
2023/10/19 04:59:10;;;;;;;;;;;;;;;;;;5121650;28;19919;-56
2023/10/19 05:01:37;;;;;;;;;;;;;;;;;;5107311;28;19954;-54
2023/10/19 05:04:03;;;;;;;;;;;;;;;;;;5120333;28;19994;-58
2023/10/19 05:06:28;;;;;;;;;;;;;;;;;;5115798;28;20062;-58
2023/10/19 05:08:54;;;;;;;;;;;;;;;;;;5120586;28;19919;-54
2023/10/19 05:11:19;;;;;;;;;;;;;;;;;;5108524;28;19922;-57
2023/10/19 05:13:45;;;;;;;;;;;;;;;;;;5116987;28;19913;-59
2023/10/19 05:16:10;;;;;;;;;;;;;;;;;;5112082;28;19916;-61
2023/10/19 05:18:36;;;;;;;;;;;;;;;;;;5115539;28;19918;-58
2023/10/19 05:21:01;;;;;;;;;;;;;;;;;;5115103;28;19923;-61
2023/10/19 05:23:27;;;;;;;;;;;;;;;;;;5115201;28;19979;-58
2023/10/19 05:25:53;;;;;;;;;;;;;;;;;;5116033;28;19912;-59
2023/10/19 05:28:19;;;;;;;;;;;;;;;;;;5122629;28;19983;-58
2023/10/19 05:30:44;;;;;;;;;;;;;;;;;;5119457;28;19912;-59
2023/10/19 05:33:09;;;;;;;;;;;;;;;;;;5118388;28;19912;-59
2023/10/19 05:35:40;;;;;;;;;;;;;;;;;;5121663;28;19923;-59
2023/10/19 05:38:05;;;;;;;;;;;;;;;;;;5118719;28;19912;-59
2023/10/19 05:40:31;;;;;;;;;;;;;;;;;;5118401;28;19919;-60
2023/10/19 05:42:57;;;;;;;;;;;;;;;;;;5118619;28;19916;-62
2023/10/19 05:45:23;;;;;;;;;;;;;;;;;;5120779;28;19912;-61
2023/10/19 05:47:49;;;;;;;;;;;;;;;;;;5118428;28;19927;-60
2023/10/19 05:50:14;;;;;;;;;;;;;;;;;;5118290;28;19912;-59
2023/10/19 05:52:40;;;;;;;;;;;;;;;;;;5116107;28;19936;-62
2023/10/19 05:55:06;;;;;;;;;;;;;;;;;;5117636;28;19919;-59
2023/10/19 05:57:31;;;;;;;;;;;;;;;;;;5121125;28;19912;-60
2023/10/19 05:59:56;;;;;;;;;;;;;;;;;;5120926;28;19919;-60
2023/10/19 06:02:22;;;;;;;;;;;;;;;;;;5118750;28;19924;-60
2023/10/19 06:04:47;;;;;;;;;;;;;;;;;;5120936;28;19912;-60
2023/10/19 06:07:13;;;;;;;;;;;;;;;;;;5111506;28;19955;-58
2023/10/19 06:09:39;;;;;;;;;;;;;;;;;;5117531;28;19912;-62
2023/10/19 06:12:05;;;;;;;;;;;;;;;;;;5104646;28;19908;-62
2023/10/19 06:14:30;;;;;;;;;;;;;;;;;;5121824;28;19919;-56
2023/10/19 06:16:56;;;;;;;;;;;;;;;;;;5118111;28;19912;-58
2023/10/19 06:19:22;;;;;;;;;;;;;;;;;;5117965;28;19996;-61
2023/10/19 06:21:48;;;;;;;;;;;;;;;;;;5118099;28;19912;-59
2023/10/19 06:24:14;;;;;;;;;;;;;;;;;;5118575;28;19916;-59
2023/10/19 06:26:41;;;;;;;;;;;;;;;;;;5105456;28;19915;-60
2023/10/19 06:29:07;;;;;;;;;;;;;;;;;;5124798;28;19912;-61
2023/10/19 06:31:32;;;;;;;;;;;;;;;;;;5118413;28;19948;-61
2023/10/19 06:33:58;;;;;;;;;;;;;;;;;;5118002;28;19912;-61
2023/10/19 06:36:23;;;;;;;;;;;;;;;;;;5118064;28;19919;-58
2023/10/19 06:38:50;;;;;;;;;;;;;;;;;;5125002;28;19916;-59
2023/10/19 06:41:18;;;;;;;;;;;;;;;;;;5117846;28;19923;-60
2023/10/19 06:43:43;;;;;;;;;;;;;;;;;;5117848;28;19944;-60
2023/10/19 06:46:11;;;;;;;;;;;;;;;;;;5127117;28;19928;-59
2023/10/19 06:48:36;;;;;;;;;;;;;;;;;;5116621;28;19912;-61
2023/10/19 06:51:02;;;;;;;;;;;;;;;;;;5117713;28;19922;-61
2023/10/19 06:53:27;;;;;;;;;;;;;;;;;;5116633;28;19947;-59
2023/10/19 06:55:53;;;;;;;;;;;;;;;;;;5123974;28;19912;-59
2023/10/19 06:58:21;;;;;;;;;;;;;;;;;;5117262;28;19912;-60
2023/10/19 07:00:56;;;;;;;;;;;;;;;;;;5117234;28;19931;-60
2023/10/19 07:03:21;;;;;;;;;;;;;;;;;;5117133;28;19923;-58
2023/10/19 07:05:46;;;;;;;;;;;;;;;;;;5118188;28;19988;-58
2023/10/19 07:08:12;;;;;;;;;;;;;;;;;;5116916;28;19951;-58
2023/10/19 07:10:37;;;;;;;;;;;;;;;;;;5124221;28;19913;-58
2023/10/19 07:13:03;;;;;;;;;;;;;;;;;;5117247;28;19916;-59
2023/10/19 07:15:29;;;;;;;;;;;;;;;;;;5127119;28;19926;-58
2023/10/19 07:17:54;;;;;;;;;;;;;;;;;;5117281;28;19934;-54
2023/10/19 07:20:32;;;;;;;;;;;;;;;;;;5120714;28;19920;-53
2023/10/19 07:22:59;;;;;;;;;;;;;;;;;;5116867;28;19916;-54
2023/10/19 07:25:25;;;;;;;;;;;;;;;;;;5125736;28;19915;-57
2023/10/19 07:27:52;;;;;;;;;;;;;;;;;;5117032;28;19950;-55
2023/10/19 07:30:21;;;;;;;;;;;;;;;;;;5117513;28;19912;-59
2023/10/19 07:32:46;;;;;;;;;;;;;;;;;;5116345;28;19912;-59
2023/10/19 07:35:12;;;;;;;;;;;;;;;;;;5122443;28;20033;-60
2023/10/19 07:37:38;;;;;;;;;;;;;;;;;;5117347;28;19912;-56
2023/10/19 07:40:05;;;;;;;;;;;;;;;;;;5134193;28;19923;-58
2023/10/19 07:42:32;;;;;;;;;;;;;;;;;;5116591;28;19947;-57
2023/10/19 07:44:59;;;;;;;;;;;;;;;;;;5119779;28;19918;-58
2023/10/19 07:47:24;;;;;;;;;;;;;;;;;;5116292;28;19912;-61
2023/10/19 07:49:52;;;;;;;;;;;;;;;;;;5125317;28;19915;-58
2023/10/19 07:52:17;;;;;;;;;;;;;;;;;;5116402;28;19941;-60
2023/10/19 07:54:42;;;;;;;;;;;;;;;;;;5117218;28;19908;-54
2023/10/19 07:57:08;;;;;;;;;;;;;;;;;;5107387;28;19919;-59
2023/10/19 07:59:33;;;;;;;;;;;;;;;;;;5112858;28;19916;-59
2023/10/19 08:02:02;;;;;;;;;;;;;;;;;;5116236;28;20689;-56
2023/10/19 08:04:28;;;;;;;;;;;;;;;;;;5116103;28;19939;-58
2023/10/19 08:06:53;;;;;;;;;;;;;;;;;;5127782;28;19968;-58
2023/10/19 08:09:22;;;;;;;;;;;;;;;;;;5124391;28;19919;-55
2023/10/19 08:11:48;;;;;;;;;;;;;;;;;;5116349;28;19912;-58
2023/10/19 08:14:14;;;;;;;;;;;;;;;;;;5115804;28;19918;-60
2023/10/19 08:16:41;;;;;;;;;;;;;;;;;;5113662;28;19920;-56
2023/10/19 08:19:07;;;;;;;;;;;;;;;;;;5111621;28;19916;-57
2023/10/19 08:21:34;;;;;;;;;;;;;;;;;;5115840;28;19912;-57
2023/10/19 08:23:59;;;;;;;;;;;;;;;;;;5115879;28;19923;-60
2023/10/19 08:26:25;;;;;;;;;;;;;;;;;;5120007;28;19912;-59
2023/10/19 08:28:51;;;;;;;;;;;;;;;;;;5115653;28;19919;-59
2023/10/19 08:31:16;;;;;;;;;;;;;;;;;;5115585;28;19980;-56
2023/10/19 08:33:42;;;;;;;;;;;;;;;;;;5115586;28;19926;-57
2023/10/19 08:36:07;;;;;;;;;;;;;;;;;;5116754;28;19912;-55
2023/10/19 08:38:33;;;;;;;;;;;;;;;;;;5117578;28;19924;-60
2023/10/19 08:40:59;;;;;;;;;;;;;;;;;;5123433;28;19972;-59
2023/10/19 08:43:25;;;;;;;;;;;;;;;;;;5115262;28;19920;-59
2023/10/19 08:45:51;;;;;;;;;;;;;;;;;;5122820;28;19919;-59
2023/10/19 08:48:16;;;;;;;;;;;;;;;;;;5118956;28;19951;-59
2023/10/19 08:50:43;;;;;;;;;;;;;;;;;;5118671;28;19912;-57
2023/10/19 08:53:09;;;;;;;;;;;;;;;;;;5114459;28;19916;-59
2023/10/19 08:55:34;;;;;;;;;;;;;;;;;;5118805;28;19912;-57
2023/10/19 08:58:00;;;;;;;;;;;;;;;;;;5119027;28;19916;-58
2023/10/19 09:00:26;;;;;;;;;;;;;;;;;;5123372;28;19912;-60
2023/10/19 09:02:52;;;;;;;;;;;;;;;;;;5114435;28;20032;-60
2023/10/19 09:05:22;;;;;;;;;;;;;;;;;;5115626;28;19911;-60
2023/10/19 09:07:54;;;;;;;;;;;;;;;;;;5119921;28;20079;-59
2023/10/19 09:10:20;;;;;;;;;;;;;;;;;;5124826;28;20047;-57
2023/10/19 09:12:45;;;;;;;;;;;;;;;;;;5119323;28;19936;-59
2023/10/19 09:15:13;;;;;;;;;;;;;;;;;;5115207;28;19912;-58
2023/10/19 09:17:39;;;;;;;;;;;;;;;;;;5115384;28;19912;-58
2023/10/19 09:20:09;;;;;;;;;;;;;;;;;;5121666;28;19952;-61
2023/10/19 09:22:36;;;;;;;;;;;;;;;;;;5117952;28;19927;-60
2023/10/19 09:25:06;;;;;;;;;;;;;;;;;;5115230;28;19923;-61
2023/10/19 09:27:32;;;;;;;;;;;;;;;;;;5127442;28;19920;-61
2023/10/19 09:29:58;;;;;;;;;;;;;;;;;;5120526;28;19912;-56
2023/10/19 09:32:23;;;;;;;;;;;;;;;;;;5116292;28;19979;-59
2023/10/19 09:34:49;;;;;;;;;;;;;;;;;;5115002;28;19916;-59
2023/10/19 09:37:14;;;;;;;;;;;;;;;;;;5124823;28;19919;-60
2023/10/19 09:39:43;;;;;;;;;;;;;;;;;;5115124;28;19919;-61
2023/10/19 09:42:12;;;;;;;;;;;;;;;;;;5114908;28;19922;-62
2023/10/19 09:44:38;;;;;;;;;;;;;;;;;;5115308;28;19919;-60
2023/10/19 09:47:04;;;;;;;;;;;;;;;;;;5121360;28;19938;-61
2023/10/19 09:49:29;;;;;;;;;;;;;;;;;;5111099;28;19935;-60
2023/10/19 09:51:55;;;;;;;;;;;;;;;;;;5115260;28;19912;-61
2023/10/19 09:54:20;;;;;;;;;;;;;;;;;;5114888;28;19941;-60
2023/10/19 09:56:46;;;;;;;;;;;;;;;;;;5117968;28;19915;-61
2023/10/19 09:59:13;;;;;;;;;;;;;;;;;;5117922;28;19912;-61
2023/10/19 10:01:38;;;;;;;;;;;;;;;;;;5127205;28;19919;-60
2023/10/19 10:04:05;;;;;;;;;;;;;;;;;;5114962;28;19920;-61
2023/10/19 10:06:31;;;;;;;;;;;;;;;;;;5114924;28;19919;-59
2023/10/19 10:08:56;;;;;;;;;;;;;;;;;;5113960;28;19912;-61
2023/10/19 10:11:22;;;;;;;;;;;;;;;;;;5122405;28;19940;-61
2023/10/19 10:13:50;;;;;;;;;;;;;;;;;;5116626;28;19923;-62
2023/10/19 10:16:16;;;;;;;;;;;;;;;;;;5120595;28;19919;-61
2023/10/19 10:18:41;;;;;;;;;;;;;;;;;;5126839;28;19987;-60
2023/10/19 10:21:10;;;;;;;;;;;;;;;;;;5122938;28;19912;-54
2023/10/19 10:23:35;;;;;;;;;;;;;;;;;;5117731;28;19912;-57
2023/10/19 10:26:01;;;;;;;;;;;;;;;;;;5118080;28;19923;-63
2023/10/19 10:28:28;;;;;;;;;;;;;;;;;;5126212;28;19919;-59
2023/10/19 10:30:53;;;;;;;;;;;;;;;;;;5118038;28;19912;-62
2023/10/19 10:33:19;;;;;;;;;;;;;;;;;;5118291;28;19934;-61
2023/10/19 10:35:45;;;;;;;;;;;;;;;;;;5117995;28;19912;-59
2023/10/19 10:38:13;;;;;;;;;;;;;;;;;;5118129;28;19919;-62
2023/10/19 10:40:39;;;;;;;;;;;;;;;;;;5123320;28;19924;-62
2023/10/19 10:43:04;;;;;;;;;;;;;;;;;;5118093;28;19987;-62
2023/10/19 10:45:30;;;;;;;;;;;;;;;;;;5117995;28;19916;-61
2023/10/19 10:47:55;;;;;;;;;;;;;;;;;;5118863;28;19912;-61
2023/10/19 10:50:21;;;;;;;;;;;;;;;;;;5117902;28;19938;-61
2023/10/19 10:52:48;;;;;;;;;;;;;;;;;;5117449;28;19919;-62
2023/10/19 10:55:13;;;;;;;;;;;;;;;;;;5117594;28;19912;-62
2023/10/19 10:57:39;;;;;;;;;;;;;;;;;;5128597;28;19922;-63
2023/10/19 11:00:06;;;;;;;;;;;;;;;;;;5123661;28;19912;-62
2023/10/19 11:02:32;;;;;;;;;;;;;;;;;;5119605;28;19923;-63
2023/10/19 11:04:57;;;;;;;;;;;;;;;;;;5117261;28;19912;-61
2023/10/19 11:07:24;;;;;;;;;;;;;;;;;;5124919;28;19912;-60
2023/10/19 11:09:49;;;;;;;;;;;;;;;;;;5118291;28;19975;-63
2023/10/19 11:12:19;;;;;;;;;;;;;;;;;;5119474;28;19926;-62
2023/10/19 11:14:44;;;;;;;;;;;;;;;;;;5132823;28;19945;-62
2023/10/19 11:17:10;;;;;;;;;;;;;;;;;;5121912;28;19916;-60
2023/10/19 11:19:35;;;;;;;;;;;;;;;;;;5117293;28;19919;-61
2023/10/19 11:22:02;;;;;;;;;;;;;;;;;;5129148;28;19978;-63
2023/10/19 11:24:31;;;;;;;;;;;;;;;;;;5116575;28;19916;-61
2023/10/19 11:26:57;;;;;;;;;;;;;;;;;;5118131;28;19969;-60
2023/10/19 11:29:23;;;;;;;;;;;;;;;;;;5117057;28;19912;-60
2023/10/19 11:31:49;;;;;;;;;;;;;;;;;;5128705;28;19911;-63
2023/10/19 11:34:18;;;;;;;;;;;;;;;;;;5116739;28;19938;-63
2023/10/19 11:36:44;;;;;;;;;;;;;;;;;;5116625;28;19921;-63
2023/10/19 11:39:12;;;;;;;;;;;;;;;;;;5129739;28;19916;-63
2023/10/19 11:41:37;;;;;;;;;;;;;;;;;;5122363;28;19916;-62
2023/10/19 11:44:03;;;;;;;;;;;;;;;;;;5116660;28;19919;-62
2023/10/19 11:46:29;;;;;;;;;;;;;;;;;;5116593;28;19916;-61
2023/10/19 11:48:55;;;;;;;;;;;;;;;;;;5124978;28;19921;-61
2023/10/19 11:51:20;;;;;;;;;;;;;;;;;;5124408;28;19916;-63
2023/10/19 11:53:46;;;;;;;;;;;;;;;;;;5116751;28;19912;-62
2023/10/19 11:56:12;;;;;;;;;;;;;;;;;;5116477;28;19917;-61
2023/10/19 11:58:39;;;;;;;;;;;;;;;;;;5123312;28;19919;-62
2023/10/19 12:01:08;;;;;;;;;;;;;;;;;;5116468;28;19941;-62
2023/10/19 12:03:36;;;;;;;;;;;;;;;;;;5116187;28;19916;-61
2023/10/19 12:06:04;;;;;;;;;;;;;;;;;;5116229;28;19912;-59
2023/10/19 12:08:29;;;;;;;;;;;;;;;;;;5119387;28;20060;-61
2023/10/19 12:10:54;;;;;;;;;;;;;;;;;;5116374;28;19951;-60
2023/10/19 12:13:20;;;;;;;;;;;;;;;;;;5116324;28;19916;-60
2023/10/19 12:15:51;;;;;;;;;;;;;;;;;;5116208;28;19940;-61
2023/10/19 12:18:16;;;;;;;;;;;;;;;;;;5116670;28;19913;-59
2023/10/19 12:20:45;;;;;;;;;;;;;;;;;;5115900;28;19912;-58
2023/10/19 12:23:11;;;;;;;;;;;;;;;;;;5115943;28;19920;-62
2023/10/19 12:25:38;;;;;;;;;;;;;;;;;;5116075;28;19919;-61
2023/10/19 12:28:04;;;;;;;;;;;;;;;;;;5115683;28;19954;-61
2023/10/19 12:30:35;;;;;;;;;;;;;;;;;;5115323;28;19975;-62
2023/10/19 12:33:01;;;;;;;;;;;;;;;;;;5115945;28;19967;-61
2023/10/19 12:35:44;;;;;;;;;;;;;;;;;;5115927;28;19919;-62
2023/10/19 12:38:15;;;;;;;;;;;;;;;;;;5120314;28;19911;-62
2023/10/19 12:40:41;;;;;;;;;;;;;;;;;;5115859;28;19927;-60
2023/10/19 12:43:07;;;;;;;;;;;;;;;;;;5116150;28;19975;-62
2023/10/19 12:45:36;;;;;;;;;;;;;;;;;;5115709;28;19912;-60
2023/10/19 12:48:02;;;;;;;;;;;;;;;;;;5118879;28;19912;-62
2023/10/19 12:50:27;;;;;;;;;;;;;;;;;;5115896;28;19912;-61
2023/10/19 12:52:53;;;;;;;;;;;;;;;;;;5120588;28;19912;-62
2023/10/19 12:55:19;;;;;;;;;;;;;;;;;;5115572;28;19913;-59
2023/10/19 12:57:44;;;;;;;;;;;;;;;;;;5115692;28;19912;-59
2023/10/19 13:03:08;;;;;;;;;;;;;;;;;;5103400;28;19950;-58
2023/10/19 13:05:34;;;;;;;;;;;;;;;;;;5115788;28;19912;-61
2023/10/19 13:08:00;;;;;;;;;;;;;;;;;;5116597;28;19911;-59
2023/10/19 13:10:25;;;;;;;;;;;;;;;;;;5124809;28;19912;-57
2023/10/19 13:12:53;;;;;;;;;;;;;;;;;;5119571;28;19912;-61
2023/10/19 13:15:20;;;;;;;;;;;;;;;;;;5115345;28;19919;-56
2023/10/19 13:17:45;;;;;;;;;;;;;;;;;;5115253;28;19923;-60
2023/10/19 13:20:18;;;;;;;;;;;;;;;;;;5122403;28;19980;-61
2023/10/19 13:22:44;;;;;;;;;;;;;;;;;;5115002;28;19939;-60
2023/10/19 13:25:12;;;;;;;;;;;;;;;;;;5115218;28;19928;-60
2023/10/19 13:27:40;;;;;;;;;;;;;;;;;;5115153;28;19912;-61
2023/10/19 13:30:05;;;;;;;;;;;;;;;;;;5118620;28;19967;-62
2023/10/19 13:32:32;;;;;;;;;;;;;;;;;;5115104;28;19916;-61
2023/10/19 13:34:57;;;;;;;;;;;;;;;;;;5114535;28;19975;-57
2023/10/19 13:37:23;;;;;;;;;;;;;;;;;;5115049;28;19923;-60
2023/10/19 13:39:49;;;;;;;;;;;;;;;;;;5115255;28;19935;-61
2023/10/19 13:42:14;;;;;;;;;;;;;;;;;;5116242;28;19984;-61
2023/10/19 13:44:40;;;;;;;;;;;;;;;;;;5115232;28;19923;-60
2023/10/19 13:47:08;;;;;;;;;;;;;;;;;;5114592;28;19920;-61
2023/10/19 13:49:34;;;;;;;;;;;;;;;;;;5128247;28;19912;-55
2023/10/19 13:51:59;;;;;;;;;;;;;;;;;;5118099;28;19934;-56
2023/10/19 13:54:25;;;;;;;;;;;;;;;;;;5118334;28;19919;-57
2023/10/19 13:56:50;;;;;;;;;;;;;;;;;;5118128;28;19920;-55
2023/10/19 13:59:16;;;;;;;;;;;;;;;;;;5125892;28;19969;-57
2023/10/19 14:01:41;;;;;;;;;;;;;;;;;;5119527;28;19920;-54
2023/10/19 14:04:07;;;;;;;;;;;;;;;;;;5120544;28;19981;-57
2023/10/19 14:06:32;;;;;;;;;;;;;;;;;;5118176;28;19913;-56
2023/10/19 14:08:57;;;;;;;;;;;;;;;;;;5116641;28;19964;-56
2023/10/19 14:11:23;;;;;;;;;;;;;;;;;;5119710;28;19934;-55
2023/10/19 14:13:50;;;;;;;;;;;;;;;;;;5124868;28;19912;-57
2023/10/19 14:16:15;;;;;;;;;;;;;;;;;;5117995;28;19912;-55
2023/10/19 14:18:43;;;;;;;;;;;;;;;;;;5118707;28;19912;-56
2023/10/19 14:21:10;;;;;;;;;;;;;;;;;;5118772;28;19912;-56
2023/10/19 14:23:38;;;;;;;;;;;;;;;;;;5129924;28;19916;-56
2023/10/19 14:26:03;;;;;;;;;;;;;;;;;;5117747;28;19922;-56
2023/10/19 14:28:29;;;;;;;;;;;;;;;;;;5117933;28;19947;-56
2023/10/19 14:30:54;;;;;;;;;;;;;;;;;;5117611;28;19912;-57
2023/10/19 14:33:20;;;;;;;;;;;;;;;;;;5123098;28;19915;-51
2023/10/19 14:35:45;;;;;;;;;;;;;;;;;;5117869;28;19912;-55
2023/10/19 14:38:13;;;;;;;;;;;;;;;;;;5117819;28;19914;-58
2023/10/19 14:40:43;;;;;;;;;;;;;;;;;;5117911;28;19916;-52
2023/10/19 14:43:08;;;;;;;;;;;;;;;;;;5117456;28;19955;-54
2023/10/19 14:45:34;;;;;;;;;;;;;;;;;;5117448;28;19934;-54
2023/10/19 14:48:04;;;;;;;;;;;;;;;;;;5117610;28;19962;-56
2023/10/19 14:50:29;;;;;;;;;;;;;;;;;;5122873;28;19912;-54
2023/10/19 14:52:55;;;;;;;;;;;;;;;;;;5117269;28;19980;-56
2023/10/19 14:55:21;;;;;;;;;;;;;;;;;;5117242;28;19916;-57
2023/10/19 14:57:50;;;;;;;;;;;;;;;;;;5117536;28;19912;-55
2023/10/19 15:00:21;;;;;;;;;;;;;;;;;;5109796;28;19916;-55
2023/10/19 15:02:46;;;;;;;;;;;;;;;;;;5117386;28;19920;-55
2023/10/19 15:05:19;;;;;;;;;;;;;;;;;;5116233;28;19920;-54
2023/10/19 15:07:44;;;;;;;;;;;;;;;;;;5116972;28;19965;-56
2023/10/19 15:10:10;;;;;;;;;;;;;;;;;;5117586;28;19920;-57
2023/10/19 15:12:36;;;;;;;;;;;;;;;;;;5118480;28;19975;-54
2023/10/19 15:15:02;;;;;;;;;;;;;;;;;;5117101;28;19915;-57
2023/10/19 15:17:27;;;;;;;;;;;;;;;;;;5116982;28;19911;-55
2023/10/19 15:19:53;;;;;;;;;;;;;;;;;;5122020;28;19916;-53
2023/10/19 15:22:18;;;;;;;;;;;;;;;;;;5121177;28;19919;-54
2023/10/19 15:24:44;;;;;;;;;;;;;;;;;;5116899;28;19959;-55
2023/10/19 15:27:09;;;;;;;;;;;;;;;;;;5116907;28;19912;-55
2023/10/19 15:29:35;;;;;;;;;;;;;;;;;;5119227;28;19912;-55
2023/10/19 15:32:00;;;;;;;;;;;;;;;;;;5121424;28;19919;-50
2023/10/19 15:34:26;;;;;;;;;;;;;;;;;;5124693;28;19912;-54
2023/10/19 15:36:51;;;;;;;;;;;;;;;;;;5116940;28;19912;-53
2023/10/19 15:39:18;;;;;;;;;;;;;;;;;;5116737;28;19912;-56
2023/10/19 15:41:43;;;;;;;;;;;;;;;;;;5120332;28;19916;-55
2023/10/19 15:44:08;;;;;;;;;;;;;;;;;;5116855;28;19923;-56
2023/10/19 15:46:39;;;;;;;;;;;;;;;;;;5116699;28;20003;-55
2023/10/19 15:49:05;;;;;;;;;;;;;;;;;;5114660;28;19944;-58
2023/10/19 15:51:30;;;;;;;;;;;;;;;;;;5112677;28;20748;-54
2023/10/19 15:53:56;;;;;;;;;;;;;;;;;;5119124;28;19912;-56
2023/10/19 15:56:22;;;;;;;;;;;;;;;;;;5120468;28;19983;-54
2023/10/19 15:58:48;;;;;;;;;;;;;;;;;;5116508;28;19919;-57
2023/10/19 16:01:15;;;;;;;;;;;;;;;;;;5128289;28;19943;-55
2023/10/19 16:03:41;;;;;;;;;;;;;;;;;;5115925;28;19971;-55
2023/10/19 16:06:07;;;;;;;;;;;;;;;;;;5119989;28;19961;-57
2023/10/19 16:08:32;;;;;;;;;;;;;;;;;;5099450;28;19912;-57
2023/10/19 16:10:57;;;;;;;;;;;;;;;;;;5107719;28;19923;-56
2023/10/19 16:13:22;;;;;;;;;;;;;;;;;;5115795;28;19988;-56
2023/10/19 16:15:49;;;;;;;;;;;;;;;;;;5120966;28;19911;-54
2023/10/19 16:18:15;;;;;;;;;;;;;;;;;;5115999;28;19912;-57
2023/10/19 16:20:41;;;;;;;;;;;;;;;;;;5120448;28;19944;-58
2023/10/19 16:23:07;;;;;;;;;;;;;;;;;;5115283;28;19916;-55
2023/10/19 16:25:32;;;;;;;;;;;;;;;;;;5115704;28;19912;-52
2023/10/19 16:27:58;;;;;;;;;;;;;;;;;;5115895;28;19912;-57
2023/10/19 16:30:23;;;;;;;;;;;;;;;;;;5111597;28;19912;-55
2023/10/19 16:32:50;;;;;;;;;;;;;;;;;;5109540;28;19931;-57
2023/10/19 16:35:16;;;;;;;;;;;;;;;;;;5109297;28;19919;-55
2023/10/19 16:37:41;;;;;;;;;;;;;;;;;;5112034;28;19973;-57
2023/10/19 16:40:07;;;;;;;;;;;;;;;;;;5112141;28;19912;-55
2023/10/19 16:42:32;;;;;;;;;;;;;;;;;;5108634;28;19942;-54
2023/10/19 16:44:57;;;;;;;;;;;;;;;;;;5114894;28;19912;-56
2023/10/19 16:47:23;;;;;;;;;;;;;;;;;;5113891;28;19996;-55
2023/10/19 16:49:49;;;;;;;;;;;;;;;;;;5114897;28;19976;-55
2023/10/19 16:52:14;;;;;;;;;;;;;;;;;;5112933;28;19937;-54
2023/10/19 16:54:39;;;;;;;;;;;;;;;;;;5109810;28;19916;-57
2023/10/19 16:57:05;;;;;;;;;;;;;;;;;;5118400;28;19922;-56
2023/10/19 16:59:31;;;;;;;;;;;;;;;;;;5113821;28;20786;-57
2023/10/19 17:01:56;;;;;;;;;;;;;;;;;;5121671;28;19916;-56